Poseidon — WDG3989 — position and weather

sailwx.info

Track history (hours):
 
Tides and Currents Weather Stations Pressure Air Temp Water Temp Dewpoint Dewpoint Depression Visibility Wind Speed Wind Dir Waves Ship Positions

Poseidon

Owner: Deloach Marine Services, LLC, Port Allen, LA. More information available from US FCC via Universal Licensing System and Coast Guard Vessel Documentation Center.

Last reported at 2018-Jan-19 01:00 UTC. Time now 2018-Jan-19 01:19 UTC.
Position N 29°35' W 094°56'.

Length 24 m; draft 2.7 m.

Type: Towing. MMSI: 367531780.

Date/timePositionNaut miles runAvg speedWind from/ knotsBaromVisibWave heightAir tempDewpointWater temp
2018-Jan-19 01:00N 29°35' W 094°56'4 7.6
2018-Jan-19 00:30N 29°38' W 094°58'3 6.2
2018-Jan-18 23:58N 29°41' W 094°59'3 6.2
2018-Jan-18 23:26N 29°44' W 095°01'2 4.1
2018-Jan-18 23:00N 29°44' W 095°03'3 0.8
2018-Jan-18 19:20N 29°47' W 095°05'0 0.0
2018-Jan-18 19:00N 29°47' W 095°05'0 0.0
2018-Jan-18 18:29N 29°47' W 095°05'1 0.1
2018-Jan-18 06:24N 29°46' W 095°05'1 0.1
2018-Jan-18 01:52N 29°46' W 095°05'  
2018-Jan-11 21:13N 29°50' W 091°60'1 4.7
2018-Jan-11 21:00N 29°50' W 092°01'2 4.9
2018-Jan-11 20:30N 29°49' W 092°03'3 5.1
2018-Jan-11 20:01N 29°48' W 092°06'3 5.1
2018-Jan-11 19:30N 29°47' W 092°09'2 4.8
2018-Jan-11 19:01N 29°47' W 092°12'2 4.8
2018-Jan-11 18:31N 29°48' W 092°14'3 5.2
2018-Jan-11 18:01N 29°49' W 092°17'3 5.0
2018-Jan-11 17:30N 29°50' W 092°19'41 1.8
2018-Jan-10 18:23N 29°56' W 093°06'2 4.7
2018-Jan-10 18:01N 29°56' W 093°08'2 4.0
2018-Jan-10 17:31N 29°57' W 093°10'2 4.5
2018-Jan-10 17:00N 29°59' W 093°12'2 4.2
2018-Jan-10 16:30N 30°00' W 093°14'2 3.7
2018-Jan-10 16:01N 30°02' W 093°15'2 3.8
2018-Jan-10 15:30N 30°03' W 093°16'2 4.4
2018-Jan-10 15:00N 30°05' W 093°17'1 1.4
2018-Jan-10 14:30N 30°06' W 093°18'1 1.8
2018-Jan-10 14:00N 30°06' W 093°19'2 3.5
2018-Jan-10 13:30N 30°05' W 093°20'2 3.1
2018-Jan-10 13:00N 30°04' W 093°22'1 2.7
2018-Jan-10 12:30N 30°04' W 093°23'0 0.0
2018-Jan-10 12:01N 30°04' W 093°23'0 0.0
2018-Jan-10 11:30N 30°04' W 093°23'0 0.0
2018-Jan-10 11:00N 30°04' W 093°23'0 0.0
2018-Jan-10 10:30N 30°04' W 093°23'0 0.0
2018-Jan-10 10:01N 30°04' W 093°23'0 0.0
2018-Jan-10 09:31N 30°04' W 093°23'0 0.0
2018-Jan-10 09:01N 30°04' W 093°23'0 0.0
2018-Jan-10 08:31N 30°04' W 093°23'0 0.0
2018-Jan-10 08:00N 30°04' W 093°23'1 2.3
2018-Jan-10 07:31N 30°04' W 093°24'2 4.9
2018-Jan-10 07:01N 30°04' W 093°27'2 4.9
2018-Jan-10 06:31N 30°04' W 093°30'2 4.7
2018-Jan-10 06:00N 30°04' W 093°33'2 4.7
2018-Jan-10 05:31N 30°04' W 093°36'2 4.7
2018-Jan-10 05:01N 30°04' W 093°38'3 5.2
2018-Jan-10 04:30N 30°04' W 093°41'  
Track history (hours):
 
Tides and Currents Weather Stations Pressure Air Temp Water Temp Dewpoint Dewpoint Depression Visibility Wind Speed Wind Dir Waves Ship Positions

Poseidon

Owner: Deloach Marine Services, LLC, Port Allen, LA. More information available from US FCC via Universal Licensing System and Coast Guard Vessel Documentation Center.

Last reported at 2018-Jan-19 01:00 UTC. Time now 2018-Jan-19 01:19 UTC.
Position N 29°35' W 094°56'.

Length 24 m; draft 2.7 m.

Type: Towing. MMSI: 367531780.

Date/timePositionNaut miles runAvg speedWind from/ knotsBaromVisibWave heightAir tempDewpointWater temp
2018-Jan-19 01:00N 29°35' W 094°56'4 7.6
2018-Jan-19 00:30N 29°38' W 094°58'3 6.2
2018-Jan-18 23:58N 29°41' W 094°59'3 6.2
2018-Jan-18 23:26N 29°44' W 095°01'2 4.1
2018-Jan-18 23:00N 29°44' W 095°03'3 0.8
2018-Jan-18 19:20N 29°47' W 095°05'0 0.0
2018-Jan-18 19:00N 29°47' W 095°05'0 0.0
2018-Jan-18 18:29N 29°47' W 095°05'1 0.1
2018-Jan-18 06:24N 29°46' W 095°05'1 0.1
2018-Jan-18 01:52N 29°46' W 095°05'  
2018-Jan-11 21:13N 29°50' W 091°60'1 4.7
2018-Jan-11 21:00N 29°50' W 092°01'2 4.9
2018-Jan-11 20:30N 29°49' W 092°03'3 5.1
2018-Jan-11 20:01N 29°48' W 092°06'3 5.1
2018-Jan-11 19:30N 29°47' W 092°09'2 4.8
2018-Jan-11 19:01N 29°47' W 092°12'2 4.8
2018-Jan-11 18:31N 29°48' W 092°14'3 5.2
2018-Jan-11 18:01N 29°49' W 092°17'3 5.0
2018-Jan-11 17:30N 29°50' W 092°19'41 1.8
2018-Jan-10 18:23N 29°56' W 093°06'2 4.7
2018-Jan-10 18:01N 29°56' W 093°08'2 4.0
2018-Jan-10 17:31N 29°57' W 093°10'2 4.5
2018-Jan-10 17:00N 29°59' W 093°12'2 4.2
2018-Jan-10 16:30N 30°00' W 093°14'2 3.7
2018-Jan-10 16:01N 30°02' W 093°15'2 3.8
2018-Jan-10 15:30N 30°03' W 093°16'2 4.4
2018-Jan-10 15:00N 30°05' W 093°17'1 1.4
2018-Jan-10 14:30N 30°06' W 093°18'1 1.8
2018-Jan-10 14:00N 30°06' W 093°19'2 3.5
2018-Jan-10 13:30N 30°05' W 093°20'2 3.1
2018-Jan-10 13:00N 30°04' W 093°22'1 2.7
2018-Jan-10 12:30N 30°04' W 093°23'0 0.0
2018-Jan-10 12:01N 30°04' W 093°23'0 0.0
2018-Jan-10 11:30N 30°04' W 093°23'0 0.0
2018-Jan-10 11:00N 30°04' W 093°23'0 0.0
2018-Jan-10 10:30N 30°04' W 093°23'0 0.0
2018-Jan-10 10:01N 30°04' W 093°23'0 0.0
2018-Jan-10 09:31N 30°04' W 093°23'0 0.0
2018-Jan-10 09:01N 30°04' W 093°23'0 0.0
2018-Jan-10 08:31N 30°04' W 093°23'0 0.0
2018-Jan-10 08:00N 30°04' W 093°23'1 2.3
2018-Jan-10 07:31N 30°04' W 093°24'2 4.9
2018-Jan-10 07:01N 30°04' W 093°27'2 4.9
2018-Jan-10 06:31N 30°04' W 093°30'2 4.7
2018-Jan-10 06:00N 30°04' W 093°33'2 4.7
2018-Jan-10 05:31N 30°04' W 093°36'2 4.7
2018-Jan-10 05:01N 30°04' W 093°38'3 5.2
2018-Jan-10 04:30N 30°04' W 093°41'  

Dump ship's entire track history